Time,TemperatureF,DewpointF,PressureIn,WindDirection,WindDirectionDegrees,WindSpeedMPH,WindSpeedGustMPH,Humidity,HourlyPrecipIn,Conditions,Clouds,dailyrainin,SoftwareType,DateUTC
2013-12-12 00:07:00,35.2,29.0,30.55,North,360,0.0,0.0,79,0.00,,,0.00,weatherlink.com 1.10,2013-12-12 06:07:00,
2013-12-12 00:23:00,34.4,29.0,30.56,North,360,0.0,0.0,80,0.00,,,0.00,weatherlink.com 1.10,2013-12-12 06:23:00,
2013-12-12 00:38:00,33.6,28.0,30.56,North,360,0.0,0.0,81,0.00,,,0.00,weatherlink.com 1.10,2013-12-12 06:38:00,
2013-12-12 00:53:00,33.0,28.0,30.56,North,360,0.0,0.0,82,0.00,,,0.00,weatherlink.com 1.10,2013-12-12 06:53:00,
2013-12-12 01:08:00,32.7,28.0,30.55,North,360,0.0,1.0,82,0.00,,,0.00,weatherlink.com 1.10,2013-12-12 07:08:00,
2013-12-12 01:23:00,32.6,28.0,30.55,North,360,0.0,0.0,82,0.00,,,0.00,weatherlink.com 1.10,2013-12-12 07:23:00,
2013-12-12 01:38:00,32.0,27.0,30.55,North,360,0.0,0.0,83,0.00,,,0.00,weatherlink.com 1.10,2013-12-12 07:38:00,
2013-12-12 01:53:00,31.4,27.0,30.55,North,360,0.0,0.0,83,0.00,,,0.00,weatherlink.com 1.10,2013-12-12 07:53:00,
2013-12-12 02:08:00,31.1,27.0,30.55,North,360,0.0,0.0,85,0.00,,,0.00,weatherlink.com 1.10,2013-12-12 08:08:00,
2013-12-12 02:23:00,30.8,27.0,30.55,North,360,0.0,0.0,85,0.00,,,0.00,weatherlink.com 1.10,2013-12-12 08:23:00,
2013-12-12 02:38:00,30.5,27.0,30.55,North,360,0.0,0.0,86,0.00,,,0.00,weatherlink.com 1.10,2013-12-12 08:38:00,
2013-12-12 02:53:00,30.4,27.0,30.55,North,360,0.0,1.0,87,0.00,,,0.00,weatherlink.com 1.10,2013-12-12 08:53:00,
2013-12-12 03:08:00,30.4,27.0,30.55,North,360,0.0,0.0,87,0.00,,,0.00,weatherlink.com 1.10,2013-12-12 09:08:00,
2013-12-12 03:23:00,30.2,27.0,30.55,North,360,0.0,0.0,87,0.00,,,0.00,weatherlink.com 1.10,2013-12-12 09:23:00,
2013-12-12 03:38:00,29.8,26.0,30.55,North,360,0.0,0.0,87,0.00,,,0.00,weatherlink.com 1.10,2013-12-12 09:38:00,
2013-12-12 03:53:00,29.6,26.0,30.55,North,360,0.0,0.0,87,0.00,,,0.00,weatherlink.com 1.10,2013-12-12 09:53:00,
2013-12-12 04:08:00,29.4,26.0,30.55,North,360,0.0,0.0,88,0.00,,,0.00,weatherlink.com 1.10,2013-12-12 10:08:00,
2013-12-12 04:23:00,29.1,26.0,30.54,North,360,0.0,0.0,88,0.00,,,0.00,weatherlink.com 1.10,2013-12-12 10:23:00,
2013-12-12 04:38:00,28.9,26.0,30.54,North,360,0.0,0.0,89,0.00,,,0.00,weatherlink.com 1.10,2013-12-12 10:38:00,
2013-12-12 04:53:00,28.9,26.0,30.54,North,360,0.0,0.0,89,0.00,,,0.00,weatherlink.com 1.10,2013-12-12 10:53:00,
2013-12-12 05:08:00,28.8,26.0,30.53,North,360,0.0,0.0,89,0.00,,,0.00,weatherlink.com 1.10,2013-12-12 11:08:00,
2013-12-12 05:23:00,28.5,26.0,30.54,North,360,0.0,0.0,89,0.00,,,0.00,weatherlink.com 1.10,2013-12-12 11:23:00,
2013-12-12 05:38:00,28.1,25.0,30.54,North,360,0.0,0.0,89,0.00,,,0.00,weatherlink.com 1.10,2013-12-12 11:38:00,
2013-12-12 05:53:00,28.0,26.0,30.55,North,360,0.0,0.0,90,0.00,,,0.00,weatherlink.com 1.10,2013-12-12 11:53:00,
2013-12-12 06:08:00,28.0,26.0,30.55,North,360,0.0,1.0,90,0.00,,,0.00,weatherlink.com 1.10,2013-12-12 12:08:00,
2013-12-12 06:23:00,28.0,26.0,30.55,North,360,0.0,1.0,90,0.00,,,0.00,weatherlink.com 1.10,2013-12-12 12:23:00,
2013-12-12 06:38:00,27.9,25.0,30.55,North,360,0.0,0.0,90,0.00,,,0.00,weatherlink.com 1.10,2013-12-12 12:38:00,
2013-12-12 06:53:00,27.4,25.0,30.55,North,360,0.0,0.0,90,0.00,,,0.00,weatherlink.com 1.10,2013-12-12 12:53:00,
2013-12-12 07:08:00,27.1,25.0,30.55,North,360,0.0,0.0,90,0.00,,,0.00,weatherlink.com 1.10,2013-12-12 13:08:00,
2013-12-12 07:23:00,27.0,25.0,30.55,North,360,0.0,0.0,91,0.00,,,0.00,weatherlink.com 1.10,2013-12-12 13:23:00,
2013-12-12 07:38:00,27.1,25.0,30.56,North,360,0.0,0.0,91,0.00,,,0.00,weatherlink.com 1.10,2013-12-12 13:38:00,
2013-12-12 07:53:00,27.3,25.0,30.56,North,360,0.0,0.0,92,0.00,,,0.00,weatherlink.com 1.10,2013-12-12 13:53:00,
2013-12-12 08:08:00,28.2,26.0,30.56,North,360,0.0,1.0,92,0.00,,,0.00,weatherlink.com 1.10,2013-12-12 14:08:00,
2013-12-12 08:23:00,29.7,28.0,30.56,North,360,0.0,1.0,92,0.00,,,0.00,weatherlink.com 1.10,2013-12-12 14:23:00,
2013-12-12 08:38:00,31.2,29.0,30.57,North,360,0.0,1.0,90,0.00,,,0.00,weatherlink.com 1.10,2013-12-12 14:38:00,
2013-12-12 08:53:00,32.9,29.0,30.57,North,360,0.0,3.0,86,0.00,,,0.00,weatherlink.com 1.10,2013-12-12 14:53:00,
2013-12-12 09:08:00,33.8,29.0,30.58,North,360,0.0,2.0,83,0.00,,,0.00,weatherlink.com 1.10,2013-12-12 15:08:00,
2013-12-12 09:23:00,34.8,30.0,30.58,North,360,2.0,3.0,81,0.00,,,0.00,weatherlink.com 1.10,2013-12-12 15:23:00,
2013-12-12 09:38:00,35.7,29.0,30.58,North,360,0.0,4.0,78,0.00,,,0.00,weatherlink.com 1.10,2013-12-12 15:38:00,
2013-12-12 09:53:00,36.5,29.0,30.58,North,360,0.0,3.0,74,0.00,,,0.00,weatherlink.com 1.10,2013-12-12 15:53:00,
2013-12-12 10:09:00,37.4,30.0,30.57,North,360,0.0,3.0,74,0.00,,,0.00,weatherlink.com 1.10,2013-12-12 16:09:00,
2013-12-12 10:24:00,38.6,30.0,30.57,North,355,2.0,3.0,71,0.00,,,0.00,weatherlink.com 1.10,2013-12-12 16:24:00,
2013-12-12 10:39:00,39.3,30.0,30.57,West,273,1.0,3.0,70,0.00,,,0.00,weatherlink.com 1.10,2013-12-12 16:39:00,
2013-12-12 10:54:00,39.2,30.0,30.56,West,265,2.0,3.0,69,0.00,,,0.00,weatherlink.com 1.10,2013-12-12 16:54:00,
2013-12-12 11:09:00,40.1,30.0,30.55,West,265,1.0,4.0,68,0.00,,,0.00,weatherlink.com 1.10,2013-12-12 17:09:00,
2013-12-12 11:24:00,41.3,31.0,30.54,West,265,1.0,3.0,66,0.00,,,0.00,weatherlink.com 1.10,2013-12-12 17:24:00,
2013-12-12 11:39:00,41.3,31.0,30.53,WSW,239,0.0,3.0,67,0.00,,,0.00,weatherlink.com 1.10,2013-12-12 17:39:00,
2013-12-12 11:54:00,41.8,32.0,30.52,WSW,239,0.0,2.0,67,0.00,,,0.00,weatherlink.com 1.10,2013-12-12 17:54:00,
2013-12-12 12:09:00,42.6,32.0,30.51,WSW,240,0.0,2.0,66,0.00,,,0.00,weatherlink.com 1.10,2013-12-12 18:09:00,
2013-12-12 12:24:00,43.7,32.0,30.50,South,177,0.0,2.0,64,0.00,,,0.00,weatherlink.com 1.10,2013-12-12 18:24:00,
2013-12-12 12:39:00,44.1,32.0,30.49,South,177,0.0,2.0,62,0.00,,,0.00,weatherlink.com 1.10,2013-12-12 18:39:00,
2013-12-12 12:54:00,44.9,32.0,30.48,South,177,0.0,3.0,61,0.00,,,0.00,weatherlink.com 1.10,2013-12-12 18:54:00,
2013-12-12 13:09:00,44.8,32.0,30.46,South,178,0.0,2.0,61,0.00,,,0.00,weatherlink.com 1.10,2013-12-12 19:09:00,
2013-12-12 13:24:00,45.5,33.0,30.46,South,178,0.0,2.0,61,0.00,,,0.00,weatherlink.com 1.10,2013-12-12 19:24:00,
2013-12-12 13:39:00,46.8,33.0,30.45,South,177,0.0,4.0,58,0.00,,,0.00,weatherlink.com 1.10,2013-12-12 19:39:00,
2013-12-12 13:54:00,47.6,33.0,30.44,South,177,0.0,3.0,57,0.00,,,0.00,weatherlink.com 1.10,2013-12-12 19:54:00,
2013-12-12 14:09:00,48.7,34.0,30.43,South,177,1.0,4.0,57,0.00,,,0.00,weatherlink.com 1.10,2013-12-12 20:09:00,
2013-12-12 14:24:00,48.8,34.0,30.41,SE,146,1.0,6.0,56,0.00,,,0.00,weatherlink.com 1.10,2013-12-12 20:24:00,
2013-12-12 14:39:00,49.7,34.0,30.41,ESE,111,3.0,4.0,55,0.00,,,0.00,weatherlink.com 1.10,2013-12-12 20:39:00,
2013-12-12 14:54:00,49.9,34.0,30.40,ESE,107,1.0,5.0,55,0.00,,,0.00,weatherlink.com 1.10,2013-12-12 20:54:00,
2013-12-12 15:09:00,49.0,34.0,30.40,ESE,103,0.0,6.0,56,0.00,,,0.00,weatherlink.com 1.10,2013-12-12 21:09:00,
2013-12-12 15:24:00,48.6,33.0,30.40,East,84,1.0,6.0,56,0.00,,,0.00,weatherlink.com 1.10,2013-12-12 21:24:00,
2013-12-12 15:39:00,49.0,33.0,30.40,ENE,69,2.0,7.0,55,0.00,,,0.00,weatherlink.com 1.10,2013-12-12 21:39:00,
2013-12-12 15:54:00,49.5,34.0,30.41,ENE,68,2.0,4.0,55,0.00,,,0.00,weatherlink.com 1.10,2013-12-12 21:54:00,
2013-12-12 16:09:00,50.1,34.0,30.39,ENE,67,4.0,5.0,55,0.00,,,0.00,weatherlink.com 1.10,2013-12-12 22:09:00,
2013-12-12 16:25:00,49.6,33.0,30.39,ENE,67,1.0,5.0,54,0.00,,,0.00,weatherlink.com 1.10,2013-12-12 22:25:00,
2013-12-12 16:40:00,49.2,34.0,30.38,ENE,67,0.0,4.0,56,0.00,,,0.00,weatherlink.com 1.10,2013-12-12 22:40:00,
2013-12-12 16:55:00,48.5,34.0,30.38,ENE,67,1.0,4.0,57,0.00,,,0.00,weatherlink.com 1.10,2013-12-12 22:55:00,
2013-12-12 17:10:00,47.6,34.0,30.37,ENE,67,0.0,3.0,59,0.00,,,0.00,weatherlink.com 1.10,2013-12-12 23:10:00,
2013-12-12 17:25:00,46.6,34.0,30.36,ENE,67,0.0,2.0,61,0.00,,,0.00,weatherlink.com 1.10,2013-12-12 23:25:00,
2013-12-12 17:40:00,45.8,34.0,30.36,ENE,67,0.0,2.0,63,0.00,,,0.00,weatherlink.com 1.10,2013-12-12 23:40:00,
2013-12-12 17:55:00,45.2,34.0,30.36,ENE,67,0.0,0.0,65,0.00,,,0.00,weatherlink.com 1.10,2013-12-12 23:55:00,
2013-12-12 18:10:00,44.6,33.0,30.37,ENE,67,0.0,0.0,65,0.00,,,0.00,weatherlink.com 1.10,2013-12-13 00:10:00,
2013-12-12 18:25:00,44.2,34.0,30.39,ENE,67,0.0,0.0,68,0.00,,,0.00,weatherlink.com 1.10,2013-12-13 00:25:00,
2013-12-12 18:40:00,43.8,34.0,30.39,ENE,67,0.0,0.0,69,0.00,,,0.00,weatherlink.com 1.10,2013-12-13 00:40:00,
2013-12-12 18:55:00,43.6,34.0,30.37,ENE,67,0.0,1.0,70,0.00,,,0.00,weatherlink.com 1.10,2013-12-13 00:55:00,
2013-12-12 19:10:00,43.5,34.0,30.34,ENE,67,1.0,4.0,69,0.00,,,0.00,weatherlink.com 1.10,2013-12-13 01:10:00,
2013-12-12 19:25:00,44.1,34.0,30.35,ENE,68,0.0,4.0,68,0.00,,,0.00,weatherlink.com 1.10,2013-12-13 01:25:00,
2013-12-12 19:40:00,44.3,34.0,30.35,ENE,68,0.0,2.0,67,0.00,,,0.00,weatherlink.com 1.10,2013-12-13 01:40:00,
2013-12-12 19:55:00,44.2,35.0,30.35,ENE,68,0.0,2.0,69,0.00,,,0.00,weatherlink.com 1.10,2013-12-13 01:55:00,
2013-12-12 20:10:00,43.9,35.0,30.34,ENE,68,0.0,1.0,70,0.00,,,0.00,weatherlink.com 1.10,2013-12-13 02:10:00,
2013-12-12 20:25:00,43.7,35.0,30.34,ENE,68,0.0,1.0,71,0.00,,,0.00,weatherlink.com 1.10,2013-12-13 02:25:00,
2013-12-12 20:40:00,43.6,35.0,30.34,ENE,67,0.0,0.0,71,0.00,,,0.00,weatherlink.com 1.10,2013-12-13 02:40:00,
2013-12-12 20:55:00,43.5,35.0,30.33,ENE,67,0.0,0.0,72,0.00,,,0.00,weatherlink.com 1.10,2013-12-13 02:55:00,
2013-12-12 21:10:00,43.4,35.0,30.33,ENE,68,0.0,0.0,72,0.00,,,0.00,weatherlink.com 1.10,2013-12-13 03:10:00,
2013-12-12 21:25:00,43.3,35.0,30.33,ENE,67,0.0,0.0,73,0.00,,,0.00,weatherlink.com 1.10,2013-12-13 03:25:00,
2013-12-12 21:40:00,43.8,35.0,30.33,ENE,68,1.0,3.0,72,0.00,,,0.00,weatherlink.com 1.10,2013-12-13 03:40:00,
2013-12-12 21:55:00,44.3,35.0,30.32,ENE,68,3.0,4.0,71,0.00,,,0.00,weatherlink.com 1.10,2013-12-13 03:55:00,
2013-12-12 22:10:00,44.7,35.0,30.31,ENE,72,1.0,4.0,70,0.00,,,0.00,weatherlink.com 1.10,2013-12-13 04:10:00,
2013-12-12 22:25:00,44.7,36.0,30.31,ENE,72,3.0,4.0,71,0.00,,,0.00,weatherlink.com 1.10,2013-12-13 04:25:00,
2013-12-12 22:40:00,45.1,36.0,30.32,ENE,72,0.0,2.0,70,0.00,,,0.00,weatherlink.com 1.10,2013-12-13 04:40:00,
2013-12-12 22:55:00,45.2,36.0,30.30,ENE,72,0.0,0.0,71,0.00,,,0.00,weatherlink.com 1.10,2013-12-13 04:55:00,
2013-12-12 23:10:00,45.3,36.0,30.29,ENE,72,3.0,3.0,70,0.00,,,0.00,weatherlink.com 1.10,2013-12-13 05:10:00,
2013-12-12 23:25:00,45.4,36.0,30.29,ENE,72,0.0,3.0,70,0.00,,,0.00,weatherlink.com 1.10,2013-12-13 05:25:00,
2013-12-12 23:40:00,45.4,36.0,30.28,ENE,72,1.0,3.0,71,0.00,,,0.00,weatherlink.com 1.10,2013-12-13 05:40:00,
2013-12-12 23:55:00,45.7,36.0,30.26,SE,124,2.0,5.0,70,0.00,,,0.00,weatherlink.com 1.10,2013-12-13 05:55:00,